Tiempo atmosférico en la estación meteorológica de Albox, Almería (508 m.)



Fecha
DESCASC
Temp. máxima en grados centígrados (hora)
DESCASC
Temp. mínima en grados centígrados (hora)
DESCASC
Temp. media en grados centígrados
DESCASC
Racha de viento máxima en m/sg (hora)
DESCASC
Velocidad máxima media en intervalos de 10 minutos(hora)
DESCASC
Precipitaciones diarias en mm
DESCASC
Precipitaciones de 00:00 a 06:00 en mm
DESCASC
Precipitaciones de 06:00 a 12:00 en mm
DESCASC
Precipitaciones de 12:00 a 18:00 en mm
DESCASC
Precipitaciones de 18:00 a 24:00 en mm
DESCASC
13-01-2021 16.3 (14:30) 2 (06:40) 9.1 5.28 (16:00) 3.61 (16:00) 0 0 0 0 0
12-01-2021 14.7 (16:30) 0.4 (06:50) 7.5 6.11 (13:10) 4.44 (17:50) 0 0 0 0 0
11-01-2021 10.3 (14:40) 2.9 (04:20) 6.6 4.72 (15:50) 3.06 (11:30) 0 0 0 0 0
10-01-2021 11.8 (13:20) 3.7 (00:00) 7.8 7.22 (17:10) 4.72 (17:10) 0 0 0 0 0
09-01-2021 13 (16:00) 3.2 (00:00) 8.1 10 (16:20) 6.11 (16:20) 4.2 4.2 0 0 0
08-01-2021 6.3 (15:30) 4.5 (00:00) 5.4 3.61 (11:10) 2.5 (02:40) 18.6 3.4 4.8 4.6 5.8
07-01-2021 6.2 (15:50) 2.7 (00:00) 4.4 8.61 (00:10) 4.72 (00:10) 10 5.8 1.4 1 1.8
06-01-2021 11.2 (14:00) 4.5 (00:00) 7.8 9.72 (23:59) 5.83 (23:59) 3.6 0 0 0 3.6
05-01-2021 11.7 (12:50) 2.4 (00:00) 7 7.78 (01:30) 5.83 (01:30) 0 0 0 0 0
04-01-2021 12.6 (15:10) 2.4 (00:00) 7.5 14.44 (12:10) 10.83 (12:10) 0 0 0 0 0
03-01-2021 10.9 (15:10) 1.5 (00:00) 6.2 17.22 (11:40) 12.5 (04:00) 0 0 0 0 0
02-01-2021 9.1 (16:00) 2.4 (00:00) 5.8 18.33 (14:00) 13.33 (13:50) 0 0 0 0 0
01-01-2021 9.9 (13:50) 4.9 (00:00) 7.4 21.94 (12:00) 16.11 (12:00) 0 0 0 0 0
31-12-2020 14.2 (15:20) 1.1 (00:00) 7.6 13.89 (17:50) 9.44 (17:50) 0 0 0 0 0
30-12-2020 13.2 (14:30) 3.2 (00:00) 8.2 13.61 (12:30) 10.28 (12:30) 0 0 0 0 0
29-12-2020 12.8 (15:30) 5.1 (00:00) 9 16.67 (12:20) 11.67 (23:30) 0 0 0 0 0
28-12-2020 14.1 (11:40) 6.8 (00:00) 10.5 22.22 (07:00) 14.72 (03:20) 0 0 0 0 0
27-12-2020 17.7 (16:10) -0.4 (00:00) 8.7 16.39 (20:00) 11.67 (20:30) 0 0 0 0 0
26-12-2020 13.6 (15:40) 0.9 (00:00) 7.3 10.83 (09:50) 6.94 (10:10) 0 0 0 0 0
25-12-2020 15.7 (13:40) 5.6 (00:00) 10.6 10.28 (20:10) 6.67 (19:50) 0 0 0 0 0
24-12-2020 18.2 (15:40) 6.9 (00:00) 12.6 6.11 (17:30) 3.61 (17:10) 0 0 0 0 0
23-12-2020 19.4 (15:40) 7.5 (00:00) 13.4 4.17 (05:10) 3.61 (05:00) 0 0 0 0 0
22-12-2020 18.2 (13:20) 8.4 (00:00) 13.3 5.56 (16:50) 3.61 (16:40) 0 0 0 0 0
21-12-2020 18 (14:50) 6.5 (00:00) 12.3 5.28 (15:50) 3.61 (15:50) 0 0 0 0 0
20-12-2020 19.2 (15:40) 9.1 (00:00) 14.2 8.33 (15:00) 6.11 (15:00) 0.8 0.6 0.2 0 0
19-12-2020 17.3 (13:10) 6.3 (00:00) 11.8 6.39 (15:40) 4.17 (23:10) 0 0 0 0 0
18-12-2020 17.7 (15:40) 6.7 (00:00) 12.2 6.39 (16:10) 3.89 (16:10) 0 0 0 0 0
17-12-2020 17.9 (14:50) 7 (00:00) 12.4 6.39 (16:00) 3.89 (16:00) 0 0 0 0 0

Gráficas

Temp. máximas Temp. mínimas Temp. medias Precipitaciones Rachas de viento máximas Velocidades máximas media en intervalos de 10 minutos

Datos horarios

Fecha y hora oficial Temperatura (ºC) Velocidad del viento (km/h) Dirección del viento Racha (km/h) Dirección de racha Precipitación (mm) Presión (hPa) Tendencia (hPa) Humedad (%)
2021-01-15 23:00:00 7.3 4 Noroeste 25 Oeste 0 -- -- 50
2021-01-15 22:00:00 9.4 21 Oeste 37 Oeste 0 -- -- 50
2021-01-15 21:00:00 9.9 25 Oeste 35 Oeste 0 -- -- 49
2021-01-15 20:00:00 9.6 14 Oeste 27 Oeste 0 -- -- 51
2021-01-15 19:00:00 10.8 15 Oeste 22 Oeste 0 -- -- 49
2021-01-15 18:00:00 14.6 8 Oeste 26 Sudoeste 0 -- -- 45
2021-01-15 17:00:00 17.3 9 Sudeste 24 Sudoeste 0 -- -- 36
2021-01-15 16:00:00 19 16 Sudoeste 23 Sudoeste 0 -- -- 30
2021-01-15 15:00:00 18.2 14 Sudoeste 25 Sudoeste 0 -- -- 33
2021-01-15 14:00:00 17.7 12 Sudoeste 19 Sudoeste 0 -- -- 31
2021-01-15 13:00:00 16.6 3 Sur 8 Sudoeste 0 -- -- 31
2021-01-15 12:00:00 15 3 Sudeste 8 Sudeste 0 -- -- 36
2021-01-15 11:00:00 12 4 Sur 8 Sur 0 -- -- 41
2021-01-15 10:00:00 8.2 2 Oeste 9 Nordeste 0 -- -- 54
2021-01-15 09:00:00 5.2 6 Sudoeste 20 Noroeste 0 -- -- 51
2021-01-15 08:00:00 5.3 7 Noroeste 14 Noroeste 0 -- -- 52
2021-01-15 07:00:00 5.2 6 Oeste 27 Oeste 0 -- -- 55
2021-01-15 06:00:00 5.3 8 Noroeste 17 Noroeste 0 -- -- 53
2021-01-15 05:00:00 5.7 7 Noroeste 13 Noroeste 0 -- -- 52
2021-01-15 04:00:00 5.3 6 Noroeste 16 Norte 0 -- -- 54
2021-01-15 03:00:00 6 7 Noroeste 19 Oeste 0 -- -- 50
2021-01-15 02:00:00 6.8 11 Noroeste 21 Oeste 0 -- -- 51
2021-01-15 01:00:00 6.1 9 Sudoeste 19 Oeste 0 -- -- 54
2021-01-15 00:00:00 6.3 5 Noroeste 13 Noroeste 0 -- -- 55
2021-01-14 23:00:00 7.4 5 Oeste 11 Oeste 0 -- -- 52
2021-01-14 22:00:00 7.7 3 Oeste 15 Oeste 0 -- -- 49
2021-01-14 21:00:00 9.3 6 Noroeste 11 Oeste 0 -- -- 46
2021-01-14 20:00:00 10.2 7 Noroeste 19 Oeste 0 -- -- 44
2021-01-14 19:00:00 11.9 9 Noroeste 23 Oeste 0 -- -- 41
2021-01-14 18:00:00 14.7 14 Sudoeste 25 Sudoeste 0 -- -- 36
2021-01-14 17:00:00 18.2 9 Sudoeste 22 Sudoeste 0 -- -- 33
2021-01-14 16:00:00 18.5 14 Sudoeste 23 Sudoeste 0 -- -- 30
2021-01-14 15:00:00 17.5 17 Sudoeste 25 Sudoeste 0 -- -- 31
2021-01-14 14:00:00 16.8 19 Sudoeste 26 Sudoeste 0 -- -- 31
2021-01-14 13:00:00 16.6 10 Sudoeste 15 Sudoeste 0 -- -- 33
2021-01-14 12:00:00 14.8 7 Sudoeste 12 Sudoeste 0 -- -- 37
2021-01-14 11:00:00 11.7 3 Sudoeste 5 Sudoeste 0 -- -- 44
2021-01-14 10:00:00 7.4 0 Calma 9 Noroeste 0 -- -- 53
2021-01-14 09:00:00 4.6 5 Noroeste 10 Noroeste 0 -- -- 57
2021-01-14 08:00:00 4.4 5 Noroeste 12 Noroeste 0 -- -- 55
2021-01-14 07:00:00 3.9 6 Noroeste 10 Noroeste 0 -- -- 59
2021-01-14 06:00:00 4.3 6 Noroeste 10 Norte 0 -- -- 58
2021-01-14 05:00:00 4.5 2 Noroeste 9 Noroeste 0 -- -- 58
2021-01-14 04:00:00 4.4 6 Noroeste 13 Noroeste 0 -- -- 60
2021-01-14 03:00:00 4.7 7 Noroeste 10 Noroeste 0 -- -- 60
2021-01-14 02:00:00 4.4 5 Norte 13 Norte 0 -- -- 63
2021-01-14 01:00:00 5.4 9 Noroeste 14 Noroeste 0 -- -- 60
2021-01-14 00:00:00 5.5 11 Noroeste 15 Noroeste 0 -- -- 59
2021-01-13 23:00:00 5.8 9 Noroeste 12 Noroeste 0 -- -- 59
2021-01-13 22:00:00 5.4 6 Oeste 12 Noroeste 0 -- -- 65
2021-01-13 21:00:00 6.6 11 Noroeste 13 Noroeste 0 -- -- 61
2021-01-13 20:00:00 7.7 7 Noroeste 11 Noroeste 0 -- -- 60
2021-01-13 19:00:00 9.3 4 Oeste 7 Sudeste 0 -- -- 54
2021-01-13 18:00:00 11.7 3 Sudeste 12 Este 0 -- -- 43
2021-01-13 17:00:00 14.3 8 Este 19 Este 0 -- -- 41
2021-01-13 16:00:00 15.3 13 Este 19 Este 0 -- -- 36
2021-01-13 15:00:00 15.8 8 Sudeste 13 Sur 0 -- -- 31
2021-01-13 14:00:00 16.1 5 Sur 10 Sur 0 -- -- 28
2021-01-13 13:00:00 15 4 Sudoeste 10 Oeste 0 -- -- 33
2021-01-13 12:00:00 13 4 Sudoeste 8 Sudoeste 0 -- -- 41
2021-01-13 11:00:00 9.2 0 Calma 6 Oeste 0 -- -- 49
2021-01-13 10:00:00 5.2 4 Oeste 8 Oeste 0 -- -- 60
2021-01-13 09:00:00 2.8 4 Oeste 10 Oeste 0 -- -- 59
2021-01-13 08:00:00 2.3 8 Oeste 14 Noroeste 0 -- -- 64
2021-01-13 07:00:00 2.5 11 Noroeste 13 Noroeste 0 -- -- 63
2021-01-13 06:00:00 2.6 4 Noroeste 7 Oeste 0 -- -- 63
2021-01-13 05:00:00 2.7 7 Noroeste 9 Noroeste 0 -- -- 64
2021-01-13 04:00:00 2.9 6 Oeste 12 Noroeste 0 -- -- 64
2021-01-13 03:00:00 3.4 10 Noroeste 13 Norte 0 -- -- 63
2021-01-13 02:00:00 3.2 4 Oeste 12 Noroeste 0 -- -- 63
2021-01-13 01:00:00 3.5 8 Noroeste 12 Noroeste 0 -- -- 63
2021-01-13 00:00:00 3.2 11 Noroeste 15 Noroeste 0 -- -- 69
2021-01-12 23:00:00 3.5 4 Noroeste 12 Noroeste 0 -- -- 66
2021-01-12 22:00:00 3.9 7 Noroeste 12 Oeste 0 -- -- 68
2021-01-12 21:00:00 5.5 5 Noroeste 9 Noroeste 0 -- -- 61
2021-01-12 20:00:00 6.3 6 Noroeste 12 Oeste 0 -- -- 58
2021-01-12 19:00:00 7.5 5 Noroeste 21 Sudoeste 0 -- -- 61
2021-01-12 18:00:00 10.7 15 Sudoeste 21 Sudoeste 0 -- -- 50
2021-01-12 17:00:00 14.1 15 Sudoeste 18 Sudoeste 0 -- -- 41
2021-01-12 16:00:00 14.4 8 Sudoeste 19 Sudoeste 0 -- -- 41
2021-01-12 15:00:00 13.1 4 Sur 14 Sudoeste 0 -- -- 40
2021-01-12 14:00:00 12.5 11 Sudoeste 22 Sudoeste 0 -- -- 50
2021-01-12 13:00:00 11.9 12 Sudoeste 19 Sudoeste 0 -- -- 51
2021-01-12 12:00:00 10.7 9 Sudoeste 15 Oeste 0 -- -- 58
2021-01-12 11:00:00 7.7 0 Calma 10 Noroeste 0 -- -- 69
2021-01-12 10:00:00 4 3 Este 10 Sur 0 -- -- 86
2021-01-12 09:00:00 1.3 6 Noroeste 10 Noroeste 0 -- -- 87
2021-01-12 08:00:00 0.9 3 Norte 8 Oeste 0 -- -- 88
2021-01-12 07:00:00 0.4 2 Noroeste 8 Noroeste 0 -- -- 90
2021-01-12 06:00:00 1.6 4 Noroeste 9 Oeste 0 -- -- 85
2021-01-12 05:00:00 1.9 2 Noroeste 6 Noroeste 0 -- -- 85
2021-01-12 04:00:00 2.4 0 Calma 18 Noroeste 0 -- -- 84
2021-01-12 03:00:00 2.7 12 Oeste 15 Oeste 0 -- -- 85
2021-01-12 02:00:00 2.6 4 Noroeste 10 Norte 0 -- -- 88
2021-01-12 01:00:00 3.3 6 Norte 9 Norte 0 -- -- 88
2021-01-12 00:00:00 4 9 Noroeste 13 Noroeste 0 -- -- 86
2021-01-11 23:00:00 4.7 10 Noroeste 12 Noroeste 0 -- -- 87
2021-01-11 22:00:00 5.4 7 Norte 9 Norte 0 -- -- 86
2021-01-11 21:00:00 6.2 2 Norte 3 Nordeste 0 -- -- 82
2021-01-11 20:00:00 6.9 0 Calma 2 Sudeste 0 -- -- 80
2021-01-11 19:00:00 7.3 0 Calma 8 Este 0 -- -- 77
2021-01-11 18:00:00 7.8 5 Sudeste 14 Este 0 -- -- 72
2021-01-11 17:00:00 8.6 7 Este 15 Este 0 -- -- 67
2021-01-11 16:00:00 9.3 11 Este 17 Este 0 -- -- 64
2021-01-11 15:00:00 10.3 5 Sudeste 13 Este 0 -- -- 62
2021-01-11 14:00:00 9.5 7 Este 14 Este 0 -- -- 64
2021-01-11 13:00:00 8.4 3 Norte 12 Oeste 0 -- -- 68
2021-01-11 12:00:00 7.4 9 Oeste 16 Sudoeste 0 -- -- 75
2021-01-11 11:00:00 5.9 7 Sudoeste 12 Sudoeste 0 -- -- 88
2021-01-11 10:00:00 4.7 2 Sudeste 4 Sur 0 -- -- 84
2021-01-11 09:00:00 4.4 2 Oeste 8 Noroeste 0 -- -- 81
2021-01-11 08:00:00 4.2 5 Noroeste 6 Noroeste 0 -- -- 80
2021-01-11 07:00:00 3.8 3 Oeste 8 Noroeste 0 -- -- 81
2021-01-11 06:00:00 3.5 0 Calma 14 Norte 0 -- -- 80
2021-01-11 05:00:00 3.6 10 Norte 13 Norte 0 -- -- 82
2021-01-11 04:00:00 3.2 7 Norte 9 Norte 0 -- -- 85
2021-01-11 03:00:00 3.1 5 Norte 9 Norte 0 -- -- 85
2021-01-11 02:00:00 4 5 Noroeste 8 Norte 0 -- -- 81
2021-01-11 01:00:00 4.3 2 Norte 4 Noroeste 0 -- -- 85
2021-01-11 00:00:00 5.3 0 Calma 4 Sudoeste 0 -- -- 88
2021-01-10 23:00:00 5.6 3 Sudoeste 4 Sudoeste 0 -- -- 87
2021-01-10 22:00:00 6 4 Sur 10 Este 0 -- -- 85
2021-01-10 21:00:00 6.2 5 Este 10 Este 0 -- -- 84
2021-01-10 20:00:00 6.4 4 Este 13 Este 0 -- -- 85
2021-01-10 19:00:00 6.5 7 Este 19 Nordeste 0 -- -- 85
2021-01-10 18:00:00 7.2 8 Este 26 Este 0 -- -- 78
2021-01-10 17:00:00 10.3 11 Sudeste 24 Este 0 -- -- 71
2021-01-10 16:00:00 11.1 14 Sudeste 25 Este 0 -- -- 65
2021-01-10 15:00:00 11.1 11 Sudeste 20 Este 0 -- -- 64
2021-01-10 14:00:00 10.3 12 Este 22 Este 0 -- -- 63
2021-01-10 13:00:00 11.2 7 Sudeste 16 Este 0 -- -- 63
2021-01-10 12:00:00 10.1 5 Sur 13 Este 0 -- -- 65
2021-01-10 11:00:00 8.2 7 Este 12 Este 0 -- -- 74
2021-01-10 10:00:00 4.7 0 Calma 4 Sudoeste 0 -- -- 85
2021-01-10 09:00:00 3.8 3 Sudoeste 9 Sur 0 -- -- 87
2021-01-10 08:00:00 4.3 3 Norte 9 Sudoeste 0 -- -- 87
2021-01-10 07:00:00 4.8 5 Sudoeste 10 Sudoeste 0 -- -- 86
2021-01-10 06:00:00 4.9 5 Sudoeste 15 Este 0 -- -- 85
2021-01-10 05:00:00 4.7 11 Este 17 Nordeste 0 -- -- 83
2021-01-10 04:00:00 4.4 8 Este 13 Este 0 -- -- 88
2021-01-10 03:00:00 4.3 3 Nordeste 5 Nordeste 0 -- -- 88
2021-01-10 02:00:00 4.6 0 Calma 8 Este 0 -- -- 86
2021-01-10 01:00:00 4.3 5 Este 11 Este 0 -- -- 88
2021-01-10 00:00:00 3.7 3 Nordeste 5 Nordeste 0 -- -- 83
2021-01-09 23:00:00 3.7 4 Sudeste 9 Nordeste 0 -- -- 79
2021-01-09 22:00:00 3.5 5 Norte 10 Noroeste 0 -- -- 77
2021-01-09 21:00:00 4.3 8 Norte 11 Norte 0 -- -- 75
2021-01-09 20:00:00 5.6 3 Oeste 8 Oeste 0 -- -- 66
2021-01-09 19:00:00 7.1 7 Oeste 22 Noroeste 0 -- -- 65
2021-01-09 18:00:00 9.2 17 Oeste 34 Oeste 0 -- -- 54
2021-01-09 17:00:00 10.2 17 Noroeste 36 Oeste 0 -- -- 53
2021-01-09 16:00:00 13 3 Sudeste 12 Este 0 -- -- 59
2021-01-09 15:00:00 12.3 7 Este 14 Este 0 -- -- 71
2021-01-09 14:00:00 11.7 5 Sudeste 15 Sudeste 0 -- -- 80
2021-01-09 13:00:00 11.3 7 Sur 13 Sur 0 -- -- 80
2021-01-09 12:00:00 9.7 6 Este 12 Sudeste 0 -- -- 97
2021-01-09 11:00:00 8 4 Este 10 Este 0 -- -- 98
2021-01-09 10:00:00 6.6 3 Oeste 5 Oeste 0 -- -- 99
2021-01-09 09:00:00 6.1 0 Calma 10 Este 0 -- -- 99
2021-01-09 08:00:00 5.9 4 Norte 15 Nordeste 0 -- -- 99
2021-01-09 07:00:00 5.5 3 Este 8 Nordeste 0 -- -- 99
2021-01-09 06:00:00 5.6 0 Calma 4 Sur 0 -- -- 98
2021-01-09 05:00:00 5.6 2 Norte 5 Nordeste 0 -- -- 99
2021-01-09 04:00:00 5.6 3 Nordeste 8 Sudoeste 0.2 -- -- 99
2021-01-09 03:00:00 5.4 2 Oeste 8 Oeste 0.8 -- -- 98
2021-01-09 02:00:00 5.3 3 Sudoeste 12 Sudoeste 1.2 -- -- 98
2021-01-09 01:00:00 5.3 5 Noroeste 8 Oeste 2 -- -- 98
2021-01-09 00:00:00 5.3 3 Oeste 10 Este 2 -- -- 98
2021-01-08 23:00:00 5.3 4 Sudoeste 10 Oeste 1.2 -- -- 98
2021-01-08 22:00:00 5.3 6 Sudoeste 12 Sudoeste 0.8 -- -- 98
2021-01-08 21:00:00 5.3 3 Sudoeste 8 Sudoeste 0.4 -- -- 98
2021-01-08 20:00:00 5.4 4 Sudeste 10 Sur 0.8 -- -- 97
2021-01-08 19:00:00 5.6 5 Sudoeste 10 Sudoeste 0.6 -- -- 97
2021-01-08 18:00:00 5.9 4 Sudeste 8 Nordeste 1.2 -- -- 97
2021-01-08 17:00:00 6.1 3 Noroeste 11 Este 0.4 -- -- 97
2021-01-08 16:00:00 6.2 0 Calma 7 Sudoeste 0.8 -- -- 97
2021-01-08 15:00:00 6.2 3 Sudoeste 10 Norte 1 -- -- 97
2021-01-08 14:00:00 6.1 2 Noroeste 5 Oeste 0.8 -- -- 97
2021-01-08 13:00:00 5.8 3 Oeste 11 Sudoeste 0.4 -- -- 98
2021-01-08 12:00:00 5.6 5 Oeste 13 Noroeste 0.6 -- -- 98
2021-01-08 11:00:00 5.1 8 Oeste 12 Oeste 0.6 -- -- 98
2021-01-08 10:00:00 4.8 3 Noroeste 8 Sudoeste 1.6 -- -- 98
2021-01-08 09:00:00 4.6 3 Sudoeste 4 Sudoeste 1 -- -- 98
2021-01-08 08:00:00 4.6 2 Sur 8 Sur 0.6 -- -- 98
2021-01-08 07:00:00 4.9 3 Sudoeste 8 Sudoeste 0.4 -- -- 98
2021-01-08 06:00:00 4.9 5 Sudoeste 8 Sudoeste 0.4 -- -- 97
2021-01-08 05:00:00 4.8 2 Sudoeste 10 Sudoeste 0 -- -- 97
2021-01-08 04:00:00 4.9 6 Sudoeste 11 Sudoeste 0.4 -- -- 97
2021-01-08 03:00:00 4.9 7 Sudoeste 12 Sudoeste 0.4 -- -- 97
2021-01-08 02:00:00 5 5 Sudoeste 9 Sudoeste 0.8 -- -- 97
2021-01-08 01:00:00 5 4 Sudoeste 6 Sudoeste 1.4 -- -- 96
2021-01-08 00:00:00 5 2 Sudoeste 5 Sur 1.2 -- -- 96
2021-01-07 23:00:00 5.2 0 Calma 5 Sudeste 0.4 -- -- 96
2021-01-07 22:00:00 5.3 3 Sudeste 6 Sudoeste 0 -- -- 96
2021-01-07 21:00:00 5.4 0 Calma 5 Sur 0.2 -- -- 96
2021-01-07 20:00:00 5.5 0 Calma 5 Sur 0 -- -- 96
2021-01-07 19:00:00 5.7 3 Sudoeste 5 Sur 0 -- -- 95
2021-01-07 18:00:00 5.9 0 Calma 6 Nordeste 0 -- -- 95
2021-01-07 17:00:00 6.1 0 Calma 3 Este 0.2 -- -- 96
2021-01-07 16:00:00 6.1 0 Calma 5 Este 0.2 -- -- 96
2021-01-07 15:00:00 5.9 3 Sur 12 Sudoeste 0.2 -- -- 96
2021-01-07 14:00:00 5.4 6 Sudoeste 10 Sudoeste 0.2 -- -- 97
2021-01-07 13:00:00 4.9 4 Sudoeste 13 Sudoeste 0.2 -- -- 97
2021-01-07 12:00:00 4.2 7 Sudoeste 14 Sudoeste 0 -- -- 97
2021-01-07 11:00:00 3.7 9 Sudoeste 13 Sudoeste 0.2 -- -- 96
2021-01-07 10:00:00 3.4 5 Sudoeste 13 Sudoeste 0.2 -- -- 96
2021-01-07 09:00:00 2.9 0 Calma 6 Sudoeste 0.4 -- -- 96
2021-01-07 08:00:00 2.8 2 Sudoeste 16 Sudoeste 0.4 -- -- 95
2021-01-07 07:00:00 2.8 10 Sudoeste 17 Oeste 0.2 -- -- 95
2021-01-07 06:00:00 3.4 8 Oeste 14 Oeste 0.6 -- -- 93
2021-01-07 05:00:00 4 2 Oeste 4 Sudoeste 0.8 -- -- 91
2021-01-07 04:00:00 4 3 Sudeste 11 Este 0.6 -- -- 91
2021-01-07 03:00:00 4 5 Este 24 Nordeste 0.6 -- -- 91
2021-01-07 02:00:00 4.2 9 Nordeste 29 Este 1.2 -- -- 91
2021-01-07 01:00:00 4.6 12 Nordeste 31 Nordeste 2 -- -- 91
2021-01-07 00:00:00 5.1 21 Nordeste 35 Nordeste 1.4 -- -- 90
2021-01-06 23:00:00 5.6 8 Nordeste 20 Nordeste 1.6 -- -- 90
2021-01-06 22:00:00 5.9 7 Nordeste 16 Nordeste 0.6 -- -- 87
2021-01-06 21:00:00 6.6 10 Nordeste 20 Nordeste 0 -- -- 77
2021-01-06 20:00:00 7.4 8 Este 25 Este 0 -- -- 62
2021-01-06 19:00:00 7.7 8 Este 19 Este 0 -- -- 64
2021-01-06 18:00:00 8.1 10 Este 22 Este 0 -- -- 56
2021-01-06 17:00:00 9 9 Este 18 Este 0 -- -- 51
2021-01-06 16:00:00 9.5 8 Este 21 Este 0 -- -- 51
2021-01-06 15:00:00 10.6 9 Sudeste 18 Sudeste 0 -- -- 49
2021-01-06 14:00:00 11.2 8 Sudeste 17 Sudeste 0 -- -- 49
2021-01-06 13:00:00 10 6 Este 27 Este 0 -- -- 52
2021-01-06 12:00:00 8.5 4 Sudeste 8 Sudeste 0 -- -- 55
2021-01-06 11:00:00 7.7 2 Sudeste 5 Nordeste 0 -- -- 55
2021-01-06 10:00:00 5.7 2 Noroeste 5 Noroeste 0 -- -- 56
2021-01-06 09:00:00 4.7 0 Calma 5 Noroeste 0 -- -- 52
2021-01-06 08:00:00 4.7 4 Noroeste 8 Norte 0 -- -- 53
2021-01-06 07:00:00 4.7 5 Noroeste 6 Noroeste 0 -- -- 56
2021-01-06 06:00:00 4.9 4 Noroeste 7 Noroeste 0 -- -- 61
2021-01-06 05:00:00 4.9 3 Noroeste 5 Noroeste 0 -- -- 63
2021-01-06 04:00:00 4.8 0 Calma 4 Norte 0 -- -- 62
2021-01-06 03:00:00 4.7 4 Norte 6 Norte 0 -- -- 61
2021-01-06 02:00:00 5.5 5 Nordeste 7 Nordeste 0 -- -- 60
2021-01-06 01:00:00 5.7 5 Nordeste 7 Nordeste 0 -- -- 60
2021-01-06 00:00:00 5.7 4 Nordeste 8 Nordeste 0 -- -- 60
2021-01-05 23:00:00 5.8 6 Nordeste 8 Nordeste 0 -- -- 59
2021-01-05 22:00:00 5.9 7 Nordeste 10 Nordeste 0 -- -- 60
2021-01-05 21:00:00 5.8 5 Nordeste 7 Nordeste 0 -- -- 60
2021-01-05 20:00:00 6.1 4 Nordeste 9 Este 0 -- -- 58
2021-01-05 19:00:00 6.3 6 Este 15 Este 0 -- -- 57
2021-01-05 18:00:00 6.9 9 Este 19 Este 0 -- -- 56
2021-01-05 17:00:00 8.4 8 Sudeste 18 Este 0 -- -- 55
2021-01-05 16:00:00 9 9 Sudeste 19 Sudeste 0 -- -- 52
2021-01-05 15:00:00 9.8 9 Sudeste 18 Sudeste 0 -- -- 49
2021-01-05 14:00:00 10.4 7 Sudeste 13 Este 0 -- -- 48
2021-01-05 13:00:00 11.3 7 Sur 15 Sudeste 0 -- -- 42
2021-01-05 12:00:00 10 4 Este 9 Este 0 -- -- 47
2021-01-05 11:00:00 7.7 4 Este 8 Nordeste 0 -- -- 55
2021-01-05 10:00:00 5 4 Oeste 7 Noroeste 0 -- -- 65
2021-01-05 09:00:00 3.1 7 Oeste 16 Oeste 0 -- -- 70
2021-01-05 08:00:00 2.8 5 Noroeste 10 Noroeste 0 -- -- 71
2021-01-05 07:00:00 2.9 4 Noroeste 13 Oeste 0 -- -- 71
2021-01-05 06:00:00 2.8 9 Oeste 12 Oeste 0 -- -- 72
2021-01-05 05:00:00 2.9 7 Oeste 12 Sudoeste 0 -- -- 72
2021-01-05 04:00:00 3.5 2 Sur 17 Oeste 0 -- -- 68
2021-01-05 03:00:00 5.1 14 Oeste 19 Oeste 0 -- -- 64
2021-01-05 02:00:00 4.8 8 Oeste 28 Noroeste 0 -- -- 63
2021-01-05 01:00:00 4.5 17 Noroeste 25 Noroeste 0 -- -- 63
2021-01-05 00:00:00 4.2 12 Oeste 22 Oeste 0 -- -- 63
2021-01-04 23:00:00 4.9 13 Sudoeste 28 Noroeste 0 -- -- 62
2021-01-04 22:00:00 5.2 19 Noroeste 28 Oeste 0 -- -- 62
2021-01-04 21:00:00 5.4 20 Oeste 27 Oeste 0 -- -- 61
2021-01-04 20:00:00 6.4 20 Noroeste 29 Noroeste 0 -- -- 55
2021-01-04 19:00:00 7.1 16 Noroeste 24 Noroeste 0 -- -- 51
2021-01-04 18:00:00 9 17 Oeste 31 Oeste 0 -- -- 45
2021-01-04 17:00:00 11.5 22 Noroeste 36 Oeste 0 -- -- 38
2021-01-04 16:00:00 12.6 21 Noroeste 39 Noroeste 0 -- -- 33
2021-01-04 15:00:00 12.1 24 Noroeste 37 Noroeste 0 -- -- 34
2021-01-04 14:00:00 11.7 22 Oeste 34 Oeste 0 -- -- 36
2021-01-04 13:00:00 10.5 21 Noroeste 52 Oeste 0 -- -- 40
2021-01-04 12:00:00 9.4 31 Oeste 47 Oeste 0 -- -- 43
2021-01-04 11:00:00 7.4 28 Oeste 42 Noroeste 0 -- -- 49
2021-01-04 10:00:00 5.3 27 Oeste 35 Oeste 0 -- -- 55
2021-01-04 09:00:00 2.4 18 Noroeste 30 Noroeste 0 -- -- 64
2021-01-04 08:00:00 2.9 27 Noroeste 35 Noroeste 0 -- -- 60
2021-01-04 07:00:00 3.4 19 Noroeste 31 Noroeste 0 -- -- 59
2021-01-04 06:00:00 4.1 26 Noroeste 39 Noroeste 0 -- -- 56
2021-01-04 05:00:00 3.1 5 Oeste 31 Oeste 0 -- -- 57
2021-01-04 04:00:00 3.1 5 Oeste 27 Noroeste 0 -- -- 53
2021-01-04 03:00:00 3.6 10 Oeste 44 Oeste 0 -- -- 54
2021-01-04 02:00:00 4.1 27 Oeste 37 Oeste 0 -- -- 50
2021-01-04 01:00:00 3.7 21 Oeste 31 Oeste 0 -- -- 50
2021-01-04 00:00:00 3.1 16 Oeste 24 Sudoeste 0 -- -- 49
2021-01-03 23:00:00 2.8 10 Oeste 22 Oeste 0 -- -- 50
2021-01-03 22:00:00 3.7 15 Oeste 22 Sudoeste 0 -- -- 48
2021-01-03 21:00:00 4.2 15 Oeste 23 Oeste 0 -- -- 47
2021-01-03 20:00:00 5.2 17 Oeste 30 Oeste 0 -- -- 43
2021-01-03 19:00:00 5.9 16 Noroeste 24 Noroeste 0 -- -- 39
2021-01-03 18:00:00 8 12 Oeste 31 Oeste 0 -- -- 33
2021-01-03 17:00:00 10.5 21 Oeste 46 Oeste 0 -- -- 29
2021-01-03 16:00:00 10.7 28 Oeste 44 Oeste 0 -- -- 30
2021-01-03 15:00:00 10.5 29 Oeste 53 Oeste 0 -- -- 31
2021-01-03 14:00:00 9.7 37 Oeste 58 Oeste 0 -- -- 32
2021-01-03 13:00:00 8.8 44 Oeste 59 Oeste 0 -- -- 34
2021-01-03 12:00:00 7.4 44 Oeste 62 Oeste 0 -- -- 38
2021-01-03 11:00:00 5.9 36 Oeste 57 Oeste 0 -- -- 41
2021-01-03 10:00:00 4.3 19 Oeste 48 Oeste 0 -- -- 46
2021-01-03 09:00:00 2.8 41 Oeste 57 Oeste 0 -- -- 50
2021-01-03 08:00:00 2.1 24 Oeste 34 Oeste 0 -- -- 52
2021-01-03 07:00:00 2.1 17 Sudoeste 44 Oeste 0 -- -- 52
2021-01-03 06:00:00 2.5 28 Oeste 52 Oeste 0 -- -- 52
2021-01-03 05:00:00 2.7 34 Oeste 59 Oeste 0 -- -- 51
2021-01-03 04:00:00 3.1 45 Oeste 61 Oeste 0 -- -- 52
2021-01-03 03:00:00 3.4 28 Oeste 51 Oeste 0 -- -- 52
2021-01-03 02:00:00 3.5 24 Oeste 43 Oeste 0 -- -- 53
2021-01-03 01:00:00 3.8 22 Oeste 44 Oeste 0 -- -- 55
2021-01-03 00:00:00 3.8 22 Oeste 35 Oeste 0 -- -- 58
2021-01-02 23:00:00 3.6 22 Oeste 34 Oeste 0 -- -- 59
2021-01-02 22:00:00 4.4 28 Oeste 60 Oeste 0 -- -- 60
2021-01-02 21:00:00 4.5 27 Oeste 46 Oeste 0 -- -- 55
2021-01-02 20:00:00 4.7 22 Oeste 53 Oeste 0 -- -- 49
2021-01-02 19:00:00 5.4 33 Oeste 55 Oeste 0 -- -- 46
2021-01-02 18:00:00 6.2 27 Oeste 44 Oeste 0 -- -- 43
2021-01-02 17:00:00 8.4 29 Oeste 53 Sudoeste 0 -- -- 37
2021-01-02 16:00:00 9.1 34 Oeste 64 Oeste 0 -- -- 35
2021-01-02 15:00:00 8.7 46 Oeste 64 Oeste 0 -- -- 34
2021-01-02 14:00:00 8.7 45 Oeste 66 Oeste 0 -- -- 35